sensor_id;sensor_type;location;lat;lon;timestamp;P1;durP1;ratioP1;P2;durP2;ratioP2
7255;SDS011;3669;49.200;9.242;2023-08-07T00:01:37;24.88;;;23.50;;
7255;SDS011;3669;49.200;9.242;2023-08-07T00:04:04;25.13;;;23.67;;
7255;SDS011;3669;49.200;9.242;2023-08-07T00:06:31;19.98;;;18.98;;
7255;SDS011;3669;49.200;9.242;2023-08-07T00:08:58;14.85;;;13.98;;
7255;SDS011;3669;49.200;9.242;2023-08-07T00:11:24;2.85;;;2.33;;
7255;SDS011;3669;49.200;9.242;2023-08-07T00:13:53;2.53;;;2.00;;
7255;SDS011;3669;49.200;9.242;2023-08-07T00:16:20;2.28;;;2.00;;
7255;SDS011;3669;49.200;9.242;2023-08-07T00:18:47;3.75;;;1.98;;
7255;SDS011;3669;49.200;9.242;2023-08-07T00:21:14;2.20;;;2.00;;
7255;SDS011;3669;49.200;9.242;2023-08-07T00:23:41;4.60;;;2.30;;
7255;SDS011;3669;49.200;9.242;2023-08-07T00:26:08;3.17;;;2.30;;
7255;SDS011;3669;49.200;9.242;2023-08-07T00:28:35;1.98;;;1.88;;
7255;SDS011;3669;49.200;9.242;2023-08-07T00:31:02;2.35;;;1.77;;
7255;SDS011;3669;49.200;9.242;2023-08-07T00:33:29;2.50;;;2.30;;
7255;SDS011;3669;49.200;9.242;2023-08-07T00:35:57;3.63;;;2.25;;
7255;SDS011;3669;49.200;9.242;2023-08-07T00:38:24;2.42;;;2.13;;
7255;SDS011;3669;49.200;9.242;2023-08-07T00:40:51;3.30;;;2.22;;
7255;SDS011;3669;49.200;9.242;2023-08-07T00:43:18;1.92;;;1.77;;
7255;SDS011;3669;49.200;9.242;2023-08-07T00:45:46;1.83;;;1.70;;
7255;SDS011;3669;49.200;9.242;2023-08-07T00:48:14;2.35;;;1.90;;
7255;SDS011;3669;49.200;9.242;2023-08-07T00:50:41;2.08;;;1.98;;
7255;SDS011;3669;49.200;9.242;2023-08-07T00:53:09;3.30;;;2.40;;
7255;SDS011;3669;49.200;9.242;2023-08-07T00:55:36;5.45;;;2.38;;
7255;SDS011;3669;49.200;9.242;2023-08-07T00:58:03;2.70;;;2.13;;
7255;SDS011;3669;49.200;9.242;2023-08-07T01:00:30;2.35;;;2.15;;
7255;SDS011;3669;49.200;9.242;2023-08-07T01:02:57;3.13;;;2.10;;
7255;SDS011;3669;49.200;9.242;2023-08-07T01:05:26;3.03;;;2.28;;
7255;SDS011;3669;49.200;9.242;2023-08-07T01:07:53;3.10;;;2.22;;
7255;SDS011;3669;49.200;9.242;2023-08-07T01:10:23;2.17;;;1.98;;
7255;SDS011;3669;49.200;9.242;2023-08-07T01:12:53;2.55;;;2.00;;
7255;SDS011;3669;49.200;9.242;2023-08-07T01:15:22;2.42;;;2.03;;
7255;SDS011;3669;49.200;9.242;2023-08-07T01:17:53;3.20;;;2.00;;
7255;SDS011;3669;49.200;9.242;2023-08-07T01:20:20;3.45;;;2.38;;
7255;SDS011;3669;49.200;9.242;2023-08-07T01:22:47;2.97;;;2.40;;
7255;SDS011;3669;49.200;9.242;2023-08-07T01:25:15;2.20;;;2.10;;
7255;SDS011;3669;49.200;9.242;2023-08-07T01:27:44;12.13;;;11.55;;
7255;SDS011;3669;49.200;9.242;2023-08-07T01:35:55;2.50;;;2.13;;
7255;SDS011;3669;49.200;9.242;2023-08-07T01:38:24;2.42;;;2.22;;
7255;SDS011;3669;49.200;9.242;2023-08-07T01:40:52;3.75;;;2.30;;
7255;SDS011;3669;49.200;9.242;2023-08-07T01:43:19;2.42;;;2.20;;
7255;SDS011;3669;49.200;9.242;2023-08-07T01:45:46;3.42;;;2.42;;
7255;SDS011;3669;49.200;9.242;2023-08-07T01:48:13;2.38;;;2.17;;
7255;SDS011;3669;49.200;9.242;2023-08-07T01:50:40;2.20;;;2.00;;
7255;SDS011;3669;49.200;9.242;2023-08-07T01:53:07;2.60;;;2.10;;
7255;SDS011;3669;49.200;9.242;2023-08-07T01:55:34;2.03;;;1.77;;
7255;SDS011;3669;49.200;9.242;2023-08-07T01:58:01;12.35;;;11.45;;
7255;SDS011;3669;49.200;9.242;2023-08-07T02:00:28;22.33;;;20.98;;
7255;SDS011;3669;49.200;9.242;2023-08-07T02:02:55;22.95;;;21.65;;
7255;SDS011;3669;49.200;9.242;2023-08-07T02:05:22;23.55;;;22.38;;
7255;SDS011;3669;49.200;9.242;2023-08-07T02:07:49;37.03;;;35.08;;
7255;SDS011;3669;49.200;9.242;2023-08-07T02:10:16;18.30;;;17.35;;
7255;SDS011;3669;49.200;9.242;2023-08-07T02:12:43;8.55;;;7.97;;
7255;SDS011;3669;49.200;9.242;2023-08-07T02:15:09;2.92;;;2.50;;
7255;SDS011;3669;49.200;9.242;2023-08-07T02:17:37;2.05;;;1.88;;
7255;SDS011;3669;49.200;9.242;2023-08-07T02:20:06;3.05;;;2.08;;
7255;SDS011;3669;49.200;9.242;2023-08-07T02:22:35;3.35;;;2.45;;
7255;SDS011;3669;49.200;9.242;2023-08-07T02:25:02;3.75;;;2.00;;
7255;SDS011;3669;49.200;9.242;2023-08-07T02:27:29;3.05;;;2.30;;
7255;SDS011;3669;49.200;9.242;2023-08-07T02:29:56;3.10;;;2.35;;
7255;SDS011;3669;49.200;9.242;2023-08-07T02:32:23;2.67;;;2.10;;
7255;SDS011;3669;49.200;9.242;2023-08-07T02:34:50;3.28;;;2.35;;
7255;SDS011;3669;49.200;9.242;2023-08-07T02:37:17;2.53;;;2.30;;
7255;SDS011;3669;49.200;9.242;2023-08-07T02:39:46;4.50;;;2.22;;
7255;SDS011;3669;49.200;9.242;2023-08-07T02:42:13;2.30;;;2.10;;
7255;SDS011;3669;49.200;9.242;2023-08-07T02:44:40;3.65;;;2.00;;
7255;SDS011;3669;49.200;9.242;2023-08-07T02:47:07;3.17;;;2.05;;
7255;SDS011;3669;49.200;9.242;2023-08-07T02:49:34;3.10;;;2.22;;
7255;SDS011;3669;49.200;9.242;2023-08-07T02:52:01;2.78;;;2.42;;
7255;SDS011;3669;49.200;9.242;2023-08-07T02:54:28;2.47;;;2.28;;
7255;SDS011;3669;49.200;9.242;2023-08-07T02:56:55;2.60;;;2.40;;
7255;SDS011;3669;49.200;9.242;2023-08-07T02:59:22;2.40;;;2.20;;
7255;SDS011;3669;49.200;9.242;2023-08-07T03:01:50;2.30;;;1.98;;
7255;SDS011;3669;49.200;9.242;2023-08-07T03:04:17;3.03;;;2.50;;
7255;SDS011;3669;49.200;9.242;2023-08-07T03:06:44;2.13;;;1.85;;
7255;SDS011;3669;49.200;9.242;2023-08-07T03:09:11;3.10;;;2.25;;
7255;SDS011;3669;49.200;9.242;2023-08-07T03:11:38;3.22;;;2.38;;
7255;SDS011;3669;49.200;9.242;2023-08-07T03:14:05;2.60;;;2.30;;
7255;SDS011;3669;49.200;9.242;2023-08-07T03:16:32;3.33;;;2.05;;
7255;SDS011;3669;49.200;9.242;2023-08-07T03:18:59;2.47;;;2.05;;
7255;SDS011;3669;49.200;9.242;2023-08-07T03:21:26;3.47;;;2.17;;
7255;SDS011;3669;49.200;9.242;2023-08-07T03:23:53;2.38;;;2.15;;
7255;SDS011;3669;49.200;9.242;2023-08-07T03:26:20;3.22;;;2.50;;
7255;SDS011;3669;49.200;9.242;2023-08-07T03:28:47;2.55;;;2.35;;
7255;SDS011;3669;49.200;9.242;2023-08-07T03:31:14;3.25;;;2.42;;
7255;SDS011;3669;49.200;9.242;2023-08-07T03:33:41;4.43;;;2.53;;
7255;SDS011;3669;49.200;9.242;2023-08-07T03:36:09;2.28;;;2.08;;
7255;SDS011;3669;49.200;9.242;2023-08-07T03:38:36;3.72;;;2.65;;
7255;SDS011;3669;49.200;9.242;2023-08-07T03:41:03;2.92;;;2.30;;
7255;SDS011;3669;49.200;9.242;2023-08-07T03:43:30;2.42;;;1.80;;
7255;SDS011;3669;49.200;9.242;2023-08-07T03:45:57;2.60;;;2.10;;
7255;SDS011;3669;49.200;9.242;2023-08-07T03:48:24;4.05;;;2.25;;
7255;SDS011;3669;49.200;9.242;2023-08-07T03:50:51;3.03;;;2.35;;
7255;SDS011;3669;49.200;9.242;2023-08-07T03:53:18;2.30;;;2.10;;
7255;SDS011;3669;49.200;9.242;2023-08-07T03:55:49;14.98;;;14.05;;
7255;SDS011;3669;49.200;9.242;2023-08-07T03:58:17;6.30;;;5.57;;
7255;SDS011;3669;49.200;9.242;2023-08-07T04:00:44;15.05;;;14.10;;
7255;SDS011;3669;49.200;9.242;2023-08-07T04:03:11;22.05;;;20.83;;
7255;SDS011;3669;49.200;9.242;2023-08-07T04:05:38;24.70;;;23.23;;
7255;SDS011;3669;49.200;9.242;2023-08-07T04:08:05;23.45;;;22.25;;
7255;SDS011;3669;49.200;9.242;2023-08-07T04:10:32;29.65;;;27.88;;
7255;SDS011;3669;49.200;9.242;2023-08-07T04:12:59;16.75;;;15.85;;
7255;SDS011;3669;49.200;9.242;2023-08-07T04:15:27;9.73;;;9.10;;
7255;SDS011;3669;49.200;9.242;2023-08-07T04:17:53;5.10;;;4.63;;
7255;SDS011;3669;49.200;9.242;2023-08-07T04:20:20;3.15;;;2.17;;
7255;SDS011;3669;49.200;9.242;2023-08-07T04:22:48;2.80;;;2.20;;
7255;SDS011;3669;49.200;9.242;2023-08-07T04:25:15;3.08;;;2.47;;
7255;SDS011;3669;49.200;9.242;2023-08-07T04:27:42;3.97;;;2.60;;
7255;SDS011;3669;49.200;9.242;2023-08-07T04:30:09;2.50;;;2.10;;
7255;SDS011;3669;49.200;9.242;2023-08-07T04:32:37;4.05;;;2.30;;
7255;SDS011;3669;49.200;9.242;2023-08-07T04:35:04;5.28;;;3.45;;
7255;SDS011;3669;49.200;9.242;2023-08-07T04:37:31;2.75;;;2.20;;
7255;SDS011;3669;49.200;9.242;2023-08-07T04:39:58;2.60;;;2.40;;
7255;SDS011;3669;49.200;9.242;2023-08-07T04:42:26;5.15;;;2.58;;
7255;SDS011;3669;49.200;9.242;2023-08-07T04:44:53;2.63;;;2.00;;
7255;SDS011;3669;49.200;9.242;2023-08-07T04:47:20;2.83;;;2.30;;
7255;SDS011;3669;49.200;9.242;2023-08-07T04:49:47;2.95;;;2.20;;
7255;SDS011;3669;49.200;9.242;2023-08-07T04:52:15;2.70;;;2.50;;
7255;SDS011;3669;49.200;9.242;2023-08-07T04:54:42;3.15;;;2.38;;
7255;SDS011;3669;49.200;9.242;2023-08-07T04:57:09;3.00;;;2.30;;
7255;SDS011;3669;49.200;9.242;2023-08-07T04:59:36;2.83;;;2.00;;
7255;SDS011;3669;49.200;9.242;2023-08-07T05:02:03;4.72;;;2.55;;
7255;SDS011;3669;49.200;9.242;2023-08-07T05:04:30;3.00;;;2.47;;
7255;SDS011;3669;49.200;9.242;2023-08-07T05:06:58;2.53;;;2.33;;
7255;SDS011;3669;49.200;9.242;2023-08-07T05:09:25;2.70;;;2.50;;
7255;SDS011;3669;49.200;9.242;2023-08-07T05:11:52;3.38;;;2.70;;
7255;SDS011;3669;49.200;9.242;2023-08-07T05:14:19;3.30;;;2.50;;
7255;SDS011;3669;49.200;9.242;2023-08-07T05:16:46;2.92;;;2.30;;
7255;SDS011;3669;49.200;9.242;2023-08-07T05:19:13;2.53;;;2.33;;
7255;SDS011;3669;49.200;9.242;2023-08-07T05:21:40;3.08;;;2.33;;
7255;SDS011;3669;49.200;9.242;2023-08-07T05:24:08;2.92;;;2.30;;
7255;SDS011;3669;49.200;9.242;2023-08-07T05:26:35;4.68;;;2.33;;
7255;SDS011;3669;49.200;9.242;2023-08-07T05:29:02;2.75;;;2.20;;
7255;SDS011;3669;49.200;9.242;2023-08-07T05:31:29;4.43;;;2.08;;
7255;SDS011;3669;49.200;9.242;2023-08-07T05:33:56;3.60;;;2.40;;
7255;SDS011;3669;49.200;9.242;2023-08-07T05:36:23;4.18;;;2.30;;
7255;SDS011;3669;49.200;9.242;2023-08-07T05:38:50;3.97;;;2.33;;
7255;SDS011;3669;49.200;9.242;2023-08-07T05:41:17;3.05;;;2.45;;
7255;SDS011;3669;49.200;9.242;2023-08-07T05:43:45;3.38;;;2.60;;
7255;SDS011;3669;49.200;9.242;2023-08-07T05:46:12;2.72;;;2.42;;
7255;SDS011;3669;49.200;9.242;2023-08-07T05:48:39;3.25;;;2.60;;
7255;SDS011;3669;49.200;9.242;2023-08-07T05:51:06;2.97;;;2.15;;
7255;SDS011;3669;49.200;9.242;2023-08-07T05:53:34;4.22;;;2.55;;
7255;SDS011;3669;49.200;9.242;2023-08-07T05:56:02;3.72;;;2.55;;
7255;SDS011;3669;49.200;9.242;2023-08-07T05:58:29;3.05;;;2.33;;
7255;SDS011;3669;49.200;9.242;2023-08-07T06:00:56;3.28;;;2.67;;
7255;SDS011;3669;49.200;9.242;2023-08-07T06:03:23;3.20;;;2.47;;
7255;SDS011;3669;49.200;9.242;2023-08-07T06:05:50;3.83;;;3.10;;
7255;SDS011;3669;49.200;9.242;2023-08-07T06:08:17;18.63;;;17.60;;
7255;SDS011;3669;49.200;9.242;2023-08-07T06:10:44;29.15;;;27.73;;
7255;SDS011;3669;49.200;9.242;2023-08-07T06:13:11;27.98;;;26.20;;
7255;SDS011;3669;49.200;9.242;2023-08-07T06:15:38;27.20;;;25.77;;
7255;SDS011;3669;49.200;9.242;2023-08-07T06:18:05;13.18;;;12.40;;
7255;SDS011;3669;49.200;9.242;2023-08-07T06:20:31;5.82;;;5.40;;
7255;SDS011;3669;49.200;9.242;2023-08-07T06:22:58;3.17;;;2.50;;
7255;SDS011;3669;49.200;9.242;2023-08-07T06:25:25;3.95;;;2.47;;
7255;SDS011;3669;49.200;9.242;2023-08-07T06:27:53;2.67;;;2.40;;
7255;SDS011;3669;49.200;9.242;2023-08-07T06:30:20;2.92;;;2.67;;
7255;SDS011;3669;49.200;9.242;2023-08-07T06:32:47;2.90;;;2.63;;
7255;SDS011;3669;49.200;9.242;2023-08-07T06:35:15;2.78;;;2.47;;
7255;SDS011;3669;49.200;9.242;2023-08-07T06:37:42;3.58;;;2.45;;
7255;SDS011;3669;49.200;9.242;2023-08-07T06:40:09;2.85;;;2.40;;
7255;SDS011;3669;49.200;9.242;2023-08-07T06:42:36;2.63;;;2.42;;
7255;SDS011;3669;49.200;9.242;2023-08-07T06:45:03;3.17;;;2.30;;
7255;SDS011;3669;49.200;9.242;2023-08-07T06:47:30;3.40;;;2.42;;
7255;SDS011;3669;49.200;9.242;2023-08-07T06:49:57;2.40;;;2.20;;
7255;SDS011;3669;49.200;9.242;2023-08-07T06:52:24;3.47;;;2.42;;
7255;SDS011;3669;49.200;9.242;2023-08-07T06:54:51;4.40;;;2.60;;
7255;SDS011;3669;49.200;9.242;2023-08-07T06:57:19;3.20;;;2.70;;
7255;SDS011;3669;49.200;9.242;2023-08-07T06:59:46;4.05;;;2.50;;
7255;SDS011;3669;49.200;9.242;2023-08-07T07:02:13;3.15;;;2.75;;
7255;SDS011;3669;49.200;9.242;2023-08-07T07:04:40;3.63;;;2.47;;
7255;SDS011;3669;49.200;9.242;2023-08-07T07:07:07;3.78;;;2.55;;
7255;SDS011;3669;49.200;9.242;2023-08-07T07:09:34;4.22;;;2.80;;
7255;SDS011;3669;49.200;9.242;2023-08-07T07:12:02;4.32;;;2.63;;
7255;SDS011;3669;49.200;9.242;2023-08-07T07:14:29;4.68;;;2.58;;
7255;SDS011;3669;49.200;9.242;2023-08-07T07:16:56;2.70;;;2.28;;
7255;SDS011;3669;49.200;9.242;2023-08-07T07:19:23;2.92;;;2.60;;
7255;SDS011;3669;49.200;9.242;2023-08-07T07:21:50;3.40;;;2.67;;
7255;SDS011;3669;49.200;9.242;2023-08-07T07:24:17;2.67;;;2.47;;
7255;SDS011;3669;49.200;9.242;2023-08-07T07:26:44;3.20;;;2.80;;
7255;SDS011;3669;49.200;9.242;2023-08-07T07:29:11;3.60;;;2.63;;
7255;SDS011;3669;49.200;9.242;2023-08-07T07:31:39;3.08;;;2.70;;
7255;SDS011;3669;49.200;9.242;2023-08-07T07:34:06;4.30;;;2.83;;
7255;SDS011;3669;49.200;9.242;2023-08-07T07:36:33;2.75;;;2.55;;
7255;SDS011;3669;49.200;9.242;2023-08-07T07:39:00;3.50;;;2.65;;
7255;SDS011;3669;49.200;9.242;2023-08-07T07:41:27;3.45;;;2.50;;
7255;SDS011;3669;49.200;9.242;2023-08-07T07:43:55;3.40;;;2.47;;
7255;SDS011;3669;49.200;9.242;2023-08-07T07:46:22;3.03;;;2.42;;
7255;SDS011;3669;49.200;9.242;2023-08-07T07:48:50;3.20;;;2.67;;
7255;SDS011;3669;49.200;9.242;2023-08-07T07:51:17;2.58;;;2.20;;
7255;SDS011;3669;49.200;9.242;2023-08-07T07:53:44;2.47;;;2.28;;
7255;SDS011;3669;49.200;9.242;2023-08-07T07:56:11;4.47;;;2.78;;
7255;SDS011;3669;49.200;9.242;2023-08-07T07:58:38;3.30;;;2.33;;
7255;SDS011;3669;49.200;9.242;2023-08-07T08:01:06;3.63;;;2.60;;
7255;SDS011;3669;49.200;9.242;2023-08-07T08:03:34;4.22;;;2.35;;
7255;SDS011;3669;49.200;9.242;2023-08-07T08:06:01;3.45;;;2.60;;
7255;SDS011;3669;49.200;9.242;2023-08-07T08:08:28;12.45;;;11.38;;
7255;SDS011;3669;49.200;9.242;2023-08-07T08:10:55;18.45;;;17.42;;
7255;SDS011;3669;49.200;9.242;2023-08-07T08:13:22;13.90;;;13.02;;
7255;SDS011;3669;49.200;9.242;2023-08-07T08:15:51;31.58;;;29.80;;
7255;SDS011;3669;49.200;9.242;2023-08-07T08:18:18;23.88;;;22.48;;
7255;SDS011;3669;49.200;9.242;2023-08-07T08:20:44;23.58;;;22.30;;
7255;SDS011;3669;49.200;9.242;2023-08-07T08:23:11;20.25;;;19.17;;
7255;SDS011;3669;49.200;9.242;2023-08-07T08:25:39;11.75;;;10.95;;
7255;SDS011;3669;49.200;9.242;2023-08-07T08:28:05;5.32;;;4.95;;
7255;SDS011;3669;49.200;9.242;2023-08-07T08:30:32;14.05;;;13.13;;
7255;SDS011;3669;49.200;9.242;2023-08-07T08:32:59;3.95;;;2.50;;
7255;SDS011;3669;49.200;9.242;2023-08-07T08:35:26;3.50;;;2.75;;
7255;SDS011;3669;49.200;9.242;2023-08-07T08:37:53;2.92;;;2.50;;
7255;SDS011;3669;49.200;9.242;2023-08-07T08:40:21;3.55;;;2.55;;
7255;SDS011;3669;49.200;9.242;2023-08-07T08:42:48;2.83;;;2.53;;
7255;SDS011;3669;49.200;9.242;2023-08-07T08:45:16;3.95;;;2.63;;
7255;SDS011;3669;49.200;9.242;2023-08-07T08:47:43;3.33;;;2.33;;
7255;SDS011;3669;49.200;9.242;2023-08-07T08:50:14;3.20;;;2.90;;
7255;SDS011;3669;49.200;9.242;2023-08-07T08:52:43;3.40;;;2.83;;
7255;SDS011;3669;49.200;9.242;2023-08-07T08:55:10;3.17;;;2.60;;
7255;SDS011;3669;49.200;9.242;2023-08-07T08:57:38;2.80;;;2.50;;
7255;SDS011;3669;49.200;9.242;2023-08-07T09:00:06;3.13;;;2.85;;
7255;SDS011;3669;49.200;9.242;2023-08-07T09:02:47;3.70;;;2.70;;
7255;SDS011;3669;49.200;9.242;2023-08-07T09:05:15;2.70;;;2.50;;
7255;SDS011;3669;49.200;9.242;2023-08-07T09:07:44;2.90;;;2.67;;
7255;SDS011;3669;49.200;9.242;2023-08-07T09:10:13;4.15;;;2.60;;
7255;SDS011;3669;49.200;9.242;2023-08-07T09:12:52;3.42;;;2.53;;
7255;SDS011;3669;49.200;9.242;2023-08-07T09:15:21;5.78;;;2.92;;
7255;SDS011;3669;49.200;9.242;2023-08-07T09:17:49;3.70;;;2.55;;
7255;SDS011;3669;49.200;9.242;2023-08-07T09:20:16;4.97;;;2.78;;
7255;SDS011;3669;49.200;9.242;2023-08-07T09:22:45;3.50;;;2.90;;
7255;SDS011;3669;49.200;9.242;2023-08-07T09:25:12;3.08;;;2.63;;
7255;SDS011;3669;49.200;9.242;2023-08-07T09:27:40;3.00;;;2.55;;
7255;SDS011;3669;49.200;9.242;2023-08-07T09:30:07;3.08;;;2.33;;
7255;SDS011;3669;49.200;9.242;2023-08-07T09:32:35;3.67;;;2.65;;
7255;SDS011;3669;49.200;9.242;2023-08-07T09:35:06;3.30;;;2.30;;
7255;SDS011;3669;49.200;9.242;2023-08-07T09:37:35;2.70;;;2.50;;
7255;SDS011;3669;49.200;9.242;2023-08-07T09:40:04;2.85;;;2.58;;
7255;SDS011;3669;49.200;9.242;2023-08-07T09:42:32;3.10;;;2.42;;
7255;SDS011;3669;49.200;9.242;2023-08-07T09:45:00;4.65;;;2.72;;
7255;SDS011;3669;49.200;9.242;2023-08-07T09:47:27;3.78;;;2.60;;
7255;SDS011;3669;49.200;9.242;2023-08-07T09:49:55;3.33;;;2.70;;
7255;SDS011;3669;49.200;9.242;2023-08-07T09:52:22;4.80;;;2.80;;
7255;SDS011;3669;49.200;9.242;2023-08-07T09:54:55;3.65;;;2.35;;
7255;SDS011;3669;49.200;9.242;2023-08-07T09:57:23;3.58;;;2.38;;
7255;SDS011;3669;49.200;9.242;2023-08-07T09:59:51;4.72;;;2.60;;
7255;SDS011;3669;49.200;9.242;2023-08-07T10:02:18;3.13;;;2.47;;
7255;SDS011;3669;49.200;9.242;2023-08-07T10:04:46;3.53;;;2.40;;
7255;SDS011;3669;49.200;9.242;2023-08-07T10:07:13;3.58;;;2.45;;
7255;SDS011;3669;49.200;9.242;2023-08-07T10:09:41;11.85;;;10.90;;
7255;SDS011;3669;49.200;9.242;2023-08-07T10:12:09;15.85;;;15.00;;
7255;SDS011;3669;49.200;9.242;2023-08-07T10:14:36;28.48;;;27.05;;
7255;SDS011;3669;49.200;9.242;2023-08-07T10:17:03;34.40;;;32.70;;
7255;SDS011;3669;49.200;9.242;2023-08-07T10:19:31;17.20;;;16.17;;
7255;SDS011;3669;49.200;9.242;2023-08-07T10:21:59;11.38;;;10.60;;
7255;SDS011;3669;49.200;9.242;2023-08-07T10:24:26;4.25;;;3.97;;
7255;SDS011;3669;49.200;9.242;2023-08-07T10:26:54;3.45;;;2.30;;
7255;SDS011;3669;49.200;9.242;2023-08-07T10:29:21;4.35;;;2.47;;
7255;SDS011;3669;49.200;9.242;2023-08-07T10:31:49;3.22;;;2.72;;
7255;SDS011;3669;49.200;9.242;2023-08-07T10:34:17;11.30;;;10.60;;
7255;SDS011;3669;49.200;9.242;2023-08-07T10:36:44;3.33;;;2.53;;
7255;SDS011;3669;49.200;9.242;2023-08-07T10:39:12;2.72;;;2.50;;
7255;SDS011;3669;49.200;9.242;2023-08-07T10:41:44;2.95;;;2.67;;
7255;SDS011;3669;49.200;9.242;2023-08-07T10:44:21;3.70;;;2.80;;
7255;SDS011;3669;49.200;9.242;2023-08-07T10:46:51;3.05;;;2.40;;
7255;SDS011;3669;49.200;9.242;2023-08-07T10:54:38;3.80;;;2.75;;
7255;SDS011;3669;49.200;9.242;2023-08-07T10:57:13;2.78;;;2.53;;
7255;SDS011;3669;49.200;9.242;2023-08-07T11:02:24;2.63;;;2.28;;
7255;SDS011;3669;49.200;9.242;2023-08-07T11:04:51;4.20;;;2.50;;
7255;SDS011;3669;49.200;9.242;2023-08-07T11:07:22;3.33;;;2.70;;
7255;SDS011;3669;49.200;9.242;2023-08-07T11:09:49;3.50;;;2.50;;
7255;SDS011;3669;49.200;9.242;2023-08-07T11:12:17;3.50;;;2.25;;
7255;SDS011;3669;49.200;9.242;2023-08-07T11:14:44;3.33;;;2.60;;
7255;SDS011;3669;49.200;9.242;2023-08-07T11:17:11;3.28;;;2.05;;
7255;SDS011;3669;49.200;9.242;2023-08-07T11:19:38;3.42;;;2.78;;
7255;SDS011;3669;49.200;9.242;2023-08-07T11:22:05;3.45;;;2.60;;
7255;SDS011;3669;49.200;9.242;2023-08-07T11:24:32;3.13;;;2.72;;
7255;SDS011;3669;49.200;9.242;2023-08-07T11:27:00;4.47;;;2.53;;
7255;SDS011;3669;49.200;9.242;2023-08-07T11:29:27;5.13;;;2.65;;
7255;SDS011;3669;49.200;9.242;2023-08-07T11:31:56;3.33;;;2.63;;
7255;SDS011;3669;49.200;9.242;2023-08-07T11:34:23;13.18;;;12.43;;
7255;SDS011;3669;49.200;9.242;2023-08-07T11:36:51;3.38;;;2.78;;
7255;SDS011;3669;49.200;9.242;2023-08-07T11:39:21;2.50;;;2.30;;
7255;SDS011;3669;49.200;9.242;2023-08-07T11:41:50;3.25;;;2.30;;
7255;SDS011;3669;49.200;9.242;2023-08-07T11:44:24;3.80;;;2.83;;
7255;SDS011;3669;49.200;9.242;2023-08-07T11:46:51;3.28;;;2.42;;
7255;SDS011;3669;49.200;9.242;2023-08-07T11:49:19;2.80;;;2.60;;
7255;SDS011;3669;49.200;9.242;2023-08-07T11:51:46;4.25;;;2.80;;
7255;SDS011;3669;49.200;9.242;2023-08-07T11:57:17;2.63;;;2.35;;
7255;SDS011;3669;49.200;9.242;2023-08-07T11:59:53;3.85;;;3.00;;
7255;SDS011;3669;49.200;9.242;2023-08-07T12:02:27;2.65;;;2.45;;
7255;SDS011;3669;49.200;9.242;2023-08-07T12:04:57;3.00;;;2.70;;
7255;SDS011;3669;49.200;9.242;2023-08-07T12:07:25;2.80;;;2.30;;
7255;SDS011;3669;49.200;9.242;2023-08-07T12:09:54;3.60;;;2.67;;
7255;SDS011;3669;49.200;9.242;2023-08-07T12:12:21;2.67;;;2.47;;
7255;SDS011;3669;49.200;9.242;2023-08-07T12:14:52;4.82;;;2.42;;
7255;SDS011;3669;49.200;9.242;2023-08-07T12:17:21;3.63;;;2.53;;
7255;SDS011;3669;49.200;9.242;2023-08-07T12:19:49;3.35;;;2.58;;
7255;SDS011;3669;49.200;9.242;2023-08-07T12:22:19;3.30;;;2.58;;
7255;SDS011;3669;49.200;9.242;2023-08-07T12:24:47;3.45;;;2.50;;
7255;SDS011;3669;49.200;9.242;2023-08-07T12:27:14;2.70;;;2.50;;
7255;SDS011;3669;49.200;9.242;2023-08-07T12:29:45;3.08;;;2.40;;
7255;SDS011;3669;49.200;9.242;2023-08-07T12:32:12;5.07;;;2.90;;
7255;SDS011;3669;49.200;9.242;2023-08-07T12:34:40;2.80;;;2.40;;
7255;SDS011;3669;49.200;9.242;2023-08-07T12:37:07;3.65;;;2.35;;
7255;SDS011;3669;49.200;9.242;2023-08-07T12:39:35;3.50;;;2.50;;
7255;SDS011;3669;49.200;9.242;2023-08-07T12:42:02;2.85;;;2.50;;
7255;SDS011;3669;49.200;9.242;2023-08-07T12:44:30;3.30;;;2.45;;
7255;SDS011;3669;49.200;9.242;2023-08-07T12:46:57;17.58;;;16.40;;
7255;SDS011;3669;49.200;9.242;2023-08-07T12:49:25;54.80;;;51.70;;
7255;SDS011;3669;49.200;9.242;2023-08-07T12:51:54;25.88;;;24.58;;
7255;SDS011;3669;49.200;9.242;2023-08-07T12:54:24;22.60;;;21.35;;
7255;SDS011;3669;49.200;9.242;2023-08-07T12:56:51;25.65;;;24.20;;
7255;SDS011;3669;49.200;9.242;2023-08-07T12:59:20;20.98;;;19.73;;
7255;SDS011;3669;49.200;9.242;2023-08-07T13:01:47;7.32;;;6.10;;
7255;SDS011;3669;49.200;9.242;2023-08-07T13:04:17;2.90;;;2.70;;
7255;SDS011;3669;49.200;9.242;2023-08-07T13:06:46;2.70;;;2.50;;
7255;SDS011;3669;49.200;9.242;2023-08-07T13:09:15;2.70;;;2.40;;
7255;SDS011;3669;49.200;9.242;2023-08-07T13:11:42;3.10;;;2.70;;
7255;SDS011;3669;49.200;9.242;2023-08-07T13:14:09;3.78;;;2.67;;
7255;SDS011;3669;49.200;9.242;2023-08-07T13:16:36;2.83;;;2.50;;
7255;SDS011;3669;49.200;9.242;2023-08-07T13:19:05;4.03;;;2.72;;
7255;SDS011;3669;49.200;9.242;2023-08-07T13:21:34;4.30;;;2.97;;
7255;SDS011;3669;49.200;9.242;2023-08-07T13:24:04;3.70;;;2.85;;
7255;SDS011;3669;49.200;9.242;2023-08-07T13:26:31;3.45;;;2.90;;
7255;SDS011;3669;49.200;9.242;2023-08-07T13:28:59;3.22;;;2.80;;
7255;SDS011;3669;49.200;9.242;2023-08-07T13:31:27;2.90;;;2.50;;
7255;SDS011;3669;49.200;9.242;2023-08-07T13:33:56;3.50;;;3.00;;
7255;SDS011;3669;49.200;9.242;2023-08-07T13:36:23;2.88;;;2.67;;
7255;SDS011;3669;49.200;9.242;2023-08-07T13:38:51;3.63;;;2.95;;
7255;SDS011;3669;49.200;9.242;2023-08-07T13:41:21;3.50;;;2.80;;
7255;SDS011;3669;49.200;9.242;2023-08-07T13:43:48;3.10;;;2.58;;
7255;SDS011;3669;49.200;9.242;2023-08-07T13:46:15;3.63;;;2.92;;
7255;SDS011;3669;49.200;9.242;2023-08-07T13:48:44;3.38;;;2.72;;
7255;SDS011;3669;49.200;9.242;2023-08-07T13:51:13;3.25;;;2.92;;
7255;SDS011;3669;49.200;9.242;2023-08-07T13:53:41;3.70;;;3.08;;
7255;SDS011;3669;49.200;9.242;2023-08-07T13:56:09;3.58;;;2.67;;
7255;SDS011;3669;49.200;9.242;2023-08-07T13:58:43;3.28;;;2.97;;
7255;SDS011;3669;49.200;9.242;2023-08-07T14:01:11;3.53;;;2.85;;
7255;SDS011;3669;49.200;9.242;2023-08-07T14:03:39;3.28;;;2.78;;
7255;SDS011;3669;49.200;9.242;2023-08-07T14:06:06;3.00;;;2.75;;
7255;SDS011;3669;49.200;9.242;2023-08-07T14:08:33;2.70;;;2.50;;
7255;SDS011;3669;49.200;9.242;2023-08-07T14:11:01;2.70;;;2.50;;
7255;SDS011;3669;49.200;9.242;2023-08-07T14:13:29;2.55;;;2.35;;
7255;SDS011;3669;49.200;9.242;2023-08-07T14:15:56;3.05;;;2.85;;
7255;SDS011;3669;49.200;9.242;2023-08-07T14:18:25;2.90;;;2.50;;
7255;SDS011;3669;49.200;9.242;2023-08-07T14:20:52;3.17;;;2.50;;
7255;SDS011;3669;49.200;9.242;2023-08-07T14:23:21;4.47;;;4.18;;
7255;SDS011;3669;49.200;9.242;2023-08-07T14:25:48;32.72;;;31.05;;
7255;SDS011;3669;49.200;9.242;2023-08-07T14:28:16;34.55;;;32.80;;
7255;SDS011;3669;49.200;9.242;2023-08-07T14:30:44;29.42;;;27.95;;
7255;SDS011;3669;49.200;9.242;2023-08-07T14:33:11;10.75;;;10.15;;
7255;SDS011;3669;49.200;9.242;2023-08-07T14:35:38;4.18;;;3.85;;
7255;SDS011;3669;49.200;9.242;2023-08-07T14:38:05;3.20;;;2.80;;
7255;SDS011;3669;49.200;9.242;2023-08-07T14:40:32;2.65;;;2.45;;
7255;SDS011;3669;49.200;9.242;2023-08-07T14:42:59;2.97;;;2.67;;
7255;SDS011;3669;49.200;9.242;2023-08-07T14:45:26;3.45;;;2.85;;
7255;SDS011;3669;49.200;9.242;2023-08-07T14:47:55;3.05;;;2.58;;
7255;SDS011;3669;49.200;9.242;2023-08-07T14:50:22;2.60;;;2.40;;
7255;SDS011;3669;49.200;9.242;2023-08-07T14:52:49;2.45;;;2.25;;
7255;SDS011;3669;49.200;9.242;2023-08-07T14:55:16;2.63;;;2.42;;
7255;SDS011;3669;49.200;9.242;2023-08-07T14:57:44;2.88;;;2.60;;
7255;SDS011;3669;49.200;9.242;2023-08-07T15:00:12;3.22;;;2.80;;
7255;SDS011;3669;49.200;9.242;2023-08-07T15:02:40;2.60;;;2.40;;
7255;SDS011;3669;49.200;9.242;2023-08-07T15:05:07;2.78;;;2.50;;
7255;SDS011;3669;49.200;9.242;2023-08-07T15:07:34;2.92;;;2.50;;
7255;SDS011;3669;49.200;9.242;2023-08-07T15:10:01;2.65;;;2.45;;
7255;SDS011;3669;49.200;9.242;2023-08-07T15:12:28;3.00;;;2.33;;
7255;SDS011;3669;49.200;9.242;2023-08-07T15:14:56;2.55;;;2.35;;
7255;SDS011;3669;49.200;9.242;2023-08-07T15:17:23;3.03;;;2.72;;
7255;SDS011;3669;49.200;9.242;2023-08-07T15:19:50;2.95;;;2.40;;
7255;SDS011;3669;49.200;9.242;2023-08-07T15:22:17;2.85;;;2.47;;
7255;SDS011;3669;49.200;9.242;2023-08-07T15:24:44;3.05;;;2.30;;
7255;SDS011;3669;49.200;9.242;2023-08-07T15:27:11;2.78;;;2.17;;
7255;SDS011;3669;49.200;9.242;2023-08-07T15:29:39;3.00;;;2.70;;
7255;SDS011;3669;49.200;9.242;2023-08-07T15:32:07;2.55;;;2.33;;